sensor_id;sensor_type;location;lat;lon;timestamp;pressure;altitude;pressure_sealevel;temperature;humidity
18749;BME280;9503;53.560;10.246;2023-01-28T07:02:25;102237.97;;;-2.66;100.00
18749;BME280;9503;53.560;10.246;2023-01-28T07:04:52;102243.63;;;-2.55;100.00
18749;BME280;9503;53.560;10.246;2023-01-28T07:07:18;102252.63;;;-2.49;100.00
18749;BME280;9503;53.560;10.246;2023-01-28T07:09:45;102260.69;;;-2.45;100.00
18749;BME280;9503;53.560;10.246;2023-01-28T07:12:12;102260.16;;;-2.42;100.00
18749;BME280;9503;53.560;10.246;2023-01-28T07:14:39;102280.47;;;-2.41;100.00
18749;BME280;9503;53.560;10.246;2023-01-28T07:17:05;102281.16;;;-2.15;100.00
18749;BME280;9503;53.560;10.246;2023-01-28T07:19:33;102287.47;;;-2.11;100.00
18749;BME280;9503;53.560;10.246;2023-01-28T07:22:00;102288.25;;;-2.05;100.00
18749;BME280;9503;53.560;10.246;2023-01-28T07:24:28;102293.09;;;-2.00;100.00
18749;BME280;9503;53.560;10.246;2023-01-28T07:26:54;102302.19;;;-1.80;100.00
18749;BME280;9503;53.560;10.246;2023-01-28T07:29:21;102302.09;;;-1.60;100.00
18749;BME280;9503;53.560;10.246;2023-01-28T07:31:48;102292.63;;;-1.42;100.00
18749;BME280;9503;53.560;10.246;2023-01-28T07:34:15;102300.22;;;-1.27;100.00
18749;BME280;9503;53.560;10.246;2023-01-28T07:36:44;102306.19;;;-1.13;100.00
18749;BME280;9503;53.560;10.246;2023-01-28T07:39:10;102305.50;;;-1.04;100.00
18749;BME280;9503;53.560;10.246;2023-01-28T07:41:37;102296.69;;;-1.08;100.00
18749;BME280;9503;53.560;10.246;2023-01-28T07:44:04;102301.00;;;-1.00;100.00
18749;BME280;9503;53.560;10.246;2023-01-28T07:46:31;102302.78;;;-1.06;100.00
18749;BME280;9503;53.560;10.246;2023-01-28T07:48:58;102303.53;;;-1.00;100.00
18749;BME280;9503;53.560;10.246;2023-01-28T07:51:25;102308.19;;;-0.96;100.00
18749;BME280;9503;53.560;10.246;2023-01-28T07:53:53;102314.50;;;-0.92;100.00
18749;BME280;9503;53.560;10.246;2023-01-28T07:56:20;102307.69;;;-0.93;100.00
18749;BME280;9503;53.560;10.246;2023-01-28T07:58:48;102304.25;;;-0.94;100.00
18749;BME280;9503;53.560;10.246;2023-01-28T08:01:15;102308.91;;;-1.04;100.00
18749;BME280;9503;53.560;10.246;2023-01-28T08:03:42;102319.22;;;-0.88;100.00
18749;BME280;9503;53.560;10.246;2023-01-28T08:06:09;102323.84;;;-0.91;100.00
18749;BME280;9503;53.560;10.246;2023-01-28T08:08:36;102317.59;;;-0.80;100.00
18749;BME280;9503;53.560;10.246;2023-01-28T08:11:07;102320.63;;;-0.83;100.00
18749;BME280;9503;53.560;10.246;2023-01-28T08:13:35;102331.97;;;-0.79;100.00
18749;BME280;9503;53.560;10.246;2023-01-28T08:16:02;102333.78;;;-0.71;100.00
18749;BME280;9503;53.560;10.246;2023-01-28T08:18:29;102327.47;;;-0.75;100.00
18749;BME280;9503;53.560;10.246;2023-01-28T08:20:56;102334.69;;;-0.71;100.00
18749;BME280;9503;53.560;10.246;2023-01-28T08:23:23;102334.69;;;-0.71;100.00
18749;BME280;9503;53.560;10.246;2023-01-28T08:25:51;102333.41;;;-0.74;100.00
18749;BME280;9503;53.560;10.246;2023-01-28T08:28:20;102329.97;;;-0.75;100.00
18749;BME280;9503;53.560;10.246;2023-01-28T08:30:47;102329.97;;;-0.82;100.00
18749;BME280;9503;53.560;10.246;2023-01-28T08:33:15;102335.22;;;-0.80;100.00
18749;BME280;9503;53.560;10.246;2023-01-28T08:35:42;102333.94;;;-0.77;100.00
18749;BME280;9503;53.560;10.246;2023-01-28T08:38:10;102331.09;;;-0.80;100.00
18749;BME280;9503;53.560;10.246;2023-01-28T08:40:37;102329.25;;;-0.81;100.00
18749;BME280;9503;53.560;10.246;2023-01-28T08:43:04;102350.31;;;-0.66;100.00
18749;BME280;9503;53.560;10.246;2023-01-28T08:45:32;102351.03;;;-0.53;100.00
18749;BME280;9503;53.560;10.246;2023-01-28T08:48:00;102349.25;;;-0.40;100.00
18749;BME280;9503;53.560;10.246;2023-01-28T08:50:29;102337.22;;;-0.35;100.00
18749;BME280;9503;53.560;10.246;2023-01-28T08:52:58;102334.47;;;-0.22;100.00
18749;BME280;9503;53.560;10.246;2023-01-28T08:55:25;102348.34;;;-0.05;100.00
18749;BME280;9503;53.560;10.246;2023-01-28T08:57:53;102347.59;;;0.11;100.00
18749;BME280;9503;53.560;10.246;2023-01-28T09:00:20;102354.41;;;0.26;100.00
18749;BME280;9503;53.560;10.246;2023-01-28T09:02:51;102346.25;;;0.36;100.00
18749;BME280;9503;53.560;10.246;2023-01-28T09:05:19;102355.22;;;0.48;100.00
18749;BME280;9503;53.560;10.246;2023-01-28T09:07:45;102361.13;;;0.63;100.00
18749;BME280;9503;53.560;10.246;2023-01-28T09:10:12;102374.84;;;0.50;100.00
18749;BME280;9503;53.560;10.246;2023-01-28T09:12:40;102377.53;;;0.66;100.00
18749;BME280;9503;53.560;10.246;2023-01-28T09:15:08;102370.16;;;0.61;100.00
18749;BME280;9503;53.560;10.246;2023-01-28T09:17:35;102371.44;;;0.43;100.00
18749;BME280;9503;53.560;10.246;2023-01-28T09:20:05;102379.41;;;0.46;100.00
18749;BME280;9503;53.560;10.246;2023-01-28T09:22:32;102394.72;;;0.40;100.00
18749;BME280;9503;53.560;10.246;2023-01-28T09:24:59;102395.22;;;0.59;100.00
18749;BME280;9503;53.560;10.246;2023-01-28T09:27:26;102394.88;;;0.42;100.00
18749;BME280;9503;53.560;10.246;2023-01-28T09:29:52;102399.91;;;0.49;100.00
18749;BME280;9503;53.560;10.246;2023-01-28T09:32:19;102395.81;;;0.35;100.00
18749;BME280;9503;53.560;10.246;2023-01-28T09:34:47;102400.50;;;0.32;100.00
18749;BME280;9503;53.560;10.246;2023-01-28T09:37:16;102395.03;;;0.50;100.00
18749;BME280;9503;53.560;10.246;2023-01-28T09:39:43;102400.19;;;0.73;100.00
18749;BME280;9503;53.560;10.246;2023-01-28T09:42:29;102411.63;;;1.00;100.00
18749;BME280;9503;53.560;10.246;2023-01-28T09:45:02;102418.03;;;1.19;100.00
18749;BME280;9503;53.560;10.246;2023-01-28T09:47:35;102413.25;;;1.59;100.00
18749;BME280;9503;53.560;10.246;2023-01-28T09:50:05;102417.66;;;1.46;98.92
18749;BME280;9503;53.560;10.246;2023-01-28T09:52:36;102418.50;;;1.31;98.52
18749;BME280;9503;53.560;10.246;2023-01-28T09:55:09;102416.31;;;1.64;97.84
18749;BME280;9503;53.560;10.246;2023-01-28T09:57:42;102405.13;;;1.85;96.63
18749;BME280;9503;53.560;10.246;2023-01-28T10:00:13;102388.69;;;2.04;94.68
18749;BME280;9503;53.560;10.246;2023-01-28T10:02:51;102372.75;;;1.66;93.91
18749;BME280;9503;53.560;10.246;2023-01-28T10:05:25;102379.28;;;1.64;95.04
18749;BME280;9503;53.560;10.246;2023-01-28T10:08:06;102380.19;;;1.65;94.56
18749;BME280;9503;53.560;10.246;2023-01-28T10:10:43;102376.28;;;1.53;93.79
18749;BME280;9503;53.560;10.246;2023-01-28T10:13:21;102372.44;;;1.63;93.66
18749;BME280;9503;53.560;10.246;2023-01-28T10:16:08;102373.44;;;1.73;92.78
18749;BME280;9503;53.560;10.246;2023-01-28T10:18:42;102363.75;;;2.23;93.04
18749;BME280;9503;53.560;10.246;2023-01-28T10:21:16;102357.44;;;2.04;90.86
18749;BME280;9503;53.560;10.246;2023-01-28T10:23:54;102364.84;;;2.02;91.19
18749;BME280;9503;53.560;10.246;2023-01-28T10:26:25;102365.53;;;2.08;90.98
18749;BME280;9503;53.560;10.246;2023-01-28T10:28:57;102359.06;;;2.03;91.67
18749;BME280;9503;53.560;10.246;2023-01-28T10:31:30;102352.72;;;2.07;91.21
18749;BME280;9503;53.560;10.246;2023-01-28T10:33:58;102337.16;;;2.42;91.62
18749;BME280;9503;53.560;10.246;2023-01-28T10:36:25;102341.06;;;2.16;90.30
18749;BME280;9503;53.560;10.246;2023-01-28T10:38:53;102338.28;;;2.53;90.65
18749;BME280;9503;53.560;10.246;2023-01-28T10:41:21;102334.19;;;2.46;89.22
18749;BME280;9503;53.560;10.246;2023-01-28T10:43:50;102343.25;;;2.60;88.80
18749;BME280;9503;53.560;10.246;2023-01-28T10:46:20;102330.69;;;2.06;87.93
18749;BME280;9503;53.560;10.246;2023-01-28T10:48:55;102326.69;;;2.24;88.77
18749;BME280;9503;53.560;10.246;2023-01-28T10:51:34;102320.00;;;2.24;89.30
18749;BME280;9503;53.560;10.246;2023-01-28T10:54:03;102321.72;;;2.32;89.82
18749;BME280;9503;53.560;10.246;2023-01-28T10:56:43;102320.03;;;2.64;88.22
18749;BME280;9503;53.560;10.246;2023-01-28T10:59:19;102297.28;;;2.89;88.02
18749;BME280;9503;53.560;10.246;2023-01-28T11:01:49;102276.44;;;2.91;86.05
18749;BME280;9503;53.560;10.246;2023-01-28T11:04:18;102281.63;;;3.09;84.58
18749;BME280;9503;53.560;10.246;2023-01-28T11:06:52;102280.59;;;3.40;84.27
18749;BME280;9503;53.560;10.246;2023-01-28T11:09:22;102282.78;;;3.03;83.54
18749;BME280;9503;53.560;10.246;2023-01-28T11:11:49;102274.72;;;3.32;82.98
18749;BME280;9503;53.560;10.246;2023-01-28T11:14:21;102263.63;;;2.65;83.93
18749;BME280;9503;53.560;10.246;2023-01-28T11:16:49;102272.53;;;2.62;83.69
18749;BME280;9503;53.560;10.246;2023-01-28T11:19:17;102288.31;;;2.84;84.00
18749;BME280;9503;53.560;10.246;2023-01-28T11:21:48;102288.59;;;3.69;82.57
18749;BME280;9503;53.560;10.246;2023-01-28T11:24:21;102287.16;;;3.13;82.22
18749;BME280;9503;53.560;10.246;2023-01-28T11:26:51;102262.00;;;3.65;82.98
18749;BME280;9503;53.560;10.246;2023-01-28T11:29:26;102246.28;;;3.43;81.83
18749;BME280;9503;53.560;10.246;2023-01-28T11:31:54;102242.81;;;3.84;82.36
18749;BME280;9503;53.560;10.246;2023-01-28T11:34:26;102244.50;;;4.27;80.05
18749;BME280;9503;53.560;10.246;2023-01-28T11:36:59;102235.22;;;4.10;80.17
18749;BME280;9503;53.560;10.246;2023-01-28T11:39:28;102220.00;;;4.45;79.22
18749;BME280;9503;53.560;10.246;2023-01-28T11:42:03;102212.31;;;3.58;80.77
18749;BME280;9503;53.560;10.246;2023-01-28T11:44:36;102237.16;;;4.48;79.45
18749;BME280;9503;53.560;10.246;2023-01-28T11:47:20;102220.59;;;3.99;79.66
18749;BME280;9503;53.560;10.246;2023-01-28T11:50:02;102225.94;;;3.76;80.34
18749;BME280;9503;53.560;10.246;2023-01-28T11:52:46;102242.34;;;3.71;80.64
18749;BME280;9503;53.560;10.246;2023-01-28T11:55:27;102236.59;;;3.39;81.81
18749;BME280;9503;53.560;10.246;2023-01-28T11:58:07;102225.41;;;3.04;82.21
18749;BME280;9503;53.560;10.246;2023-01-28T12:00:45;102211.66;;;3.35;82.91
18749;BME280;9503;53.560;10.246;2023-01-28T12:03:27;102210.78;;;3.35;82.98
18749;BME280;9503;53.560;10.246;2023-01-28T12:06:11;102219.03;;;3.58;81.84
18749;BME280;9503;53.560;10.246;2023-01-28T12:08:44;102223.34;;;3.59;82.59
18749;BME280;9503;53.560;10.246;2023-01-28T12:11:24;102211.97;;;4.06;81.00
18749;BME280;9503;53.560;10.246;2023-01-28T12:14:13;102210.28;;;3.89;80.31
18749;BME280;9503;53.560;10.246;2023-01-28T12:16:56;102217.06;;;3.38;82.59
18749;BME280;9503;53.560;10.246;2023-01-28T12:19:50;102207.72;;;3.54;82.34
18749;BME280;9503;53.560;10.246;2023-01-28T12:22:35;102211.50;;;3.93;82.02
18749;BME280;9503;53.560;10.246;2023-01-28T12:25:21;102202.34;;;3.60;82.28
18749;BME280;9503;53.560;10.246;2023-01-28T12:27:59;102201.50;;;3.85;82.08
18749;BME280;9503;53.560;10.246;2023-01-28T12:30:39;102196.34;;;3.42;83.07
18749;BME280;9503;53.560;10.246;2023-01-28T12:33:31;102201.41;;;3.51;83.00
18749;BME280;9503;53.560;10.246;2023-01-28T12:36:10;102198.59;;;3.48;84.06
18749;BME280;9503;53.560;10.246;2023-01-28T12:38:49;102192.84;;;4.01;82.94
18749;BME280;9503;53.560;10.246;2023-01-28T12:41:25;102203.16;;;4.28;81.03
18749;BME280;9503;53.560;10.246;2023-01-28T12:43:57;102193.44;;;4.15;81.49
18749;BME280;9503;53.560;10.246;2023-01-28T12:46:34;102193.41;;;4.24;82.13
18749;BME280;9503;53.560;10.246;2023-01-28T12:49:05;102191.63;;;4.32;80.01
18749;BME280;9503;53.560;10.246;2023-01-28T12:51:39;102184.50;;;4.19;81.34
18749;BME280;9503;53.560;10.246;2023-01-28T12:54:15;102181.63;;;4.16;81.99
18749;BME280;9503;53.560;10.246;2023-01-28T12:56:49;102172.84;;;3.95;81.93
18749;BME280;9503;53.560;10.246;2023-01-28T12:59:21;102170.09;;;4.46;80.82
18749;BME280;9503;53.560;10.246;2023-01-28T13:01:51;102155.94;;;4.30;80.38
18749;BME280;9503;53.560;10.246;2023-01-28T13:04:28;102150.34;;;4.60;80.82
18749;BME280;9503;53.560;10.246;2023-01-28T13:06:59;102152.69;;;4.14;81.99
18749;BME280;9503;53.560;10.246;2023-01-28T13:09:29;102153.84;;;4.43;81.50
18749;BME280;9503;53.560;10.246;2023-01-28T13:11:59;102151.81;;;4.67;80.79
18749;BME280;9503;53.560;10.246;2023-01-28T13:14:31;102152.34;;;4.37;82.61
18749;BME280;9503;53.560;10.246;2023-01-28T13:17:08;102139.84;;;4.04;82.37
18749;BME280;9503;53.560;10.246;2023-01-28T13:19:38;102134.03;;;3.70;83.34
18749;BME280;9503;53.560;10.246;2023-01-28T13:22:21;102139.69;;;3.94;85.05
18749;BME280;9503;53.560;10.246;2023-01-28T13:24:50;102140.16;;;4.07;85.21
18749;BME280;9503;53.560;10.246;2023-01-28T13:27:22;102145.22;;;4.07;85.03
18749;BME280;9503;53.560;10.246;2023-01-28T13:30:00;102132.41;;;3.62;85.77
18749;BME280;9503;53.560;10.246;2023-01-28T13:32:30;102133.72;;;3.67;86.18
18749;BME280;9503;53.560;10.246;2023-01-28T13:35:00;102138.97;;;3.60;86.81
18749;BME280;9503;53.560;10.246;2023-01-28T13:37:30;102149.56;;;3.91;86.83
18749;BME280;9503;53.560;10.246;2023-01-28T13:40:03;102153.44;;;3.87;86.14
18749;BME280;9503;53.560;10.246;2023-01-28T13:42:32;102163.72;;;3.88;86.12
18749;BME280;9503;53.560;10.246;2023-01-28T13:45:20;102168.50;;;3.85;86.10
18749;BME280;9503;53.560;10.246;2023-01-28T13:47:50;102171.19;;;3.96;85.72
18749;BME280;9503;53.560;10.246;2023-01-28T13:50:19;102180.75;;;4.15;86.38
18749;BME280;9503;53.560;10.246;2023-01-28T13:52:52;102182.22;;;4.22;85.65
18749;BME280;9503;53.560;10.246;2023-01-28T13:55:23;102187.59;;;4.25;85.95
18749;BME280;9503;53.560;10.246;2023-01-28T13:58:19;102199.09;;;4.39;85.70
18749;BME280;9503;53.560;10.246;2023-01-28T14:01:11;102204.78;;;4.19;85.71
18749;BME280;9503;53.560;10.246;2023-01-28T14:07:12;102201.75;;;4.40;85.35
18749;BME280;9503;53.560;10.246;2023-01-28T14:10:02;102199.84;;;4.03;86.54
18749;BME280;9503;53.560;10.246;2023-01-28T14:15:40;102184.75;;;3.96;86.73
18749;BME280;9503;53.560;10.246;2023-01-28T14:18:22;102181.19;;;4.03;87.12
18749;BME280;9503;53.560;10.246;2023-01-28T14:20:52;102175.06;;;4.09;86.94
18749;BME280;9503;53.560;10.246;2023-01-28T14:23:21;102175.22;;;4.02;88.21
18749;BME280;9503;53.560;10.246;2023-01-28T14:25:56;102175.50;;;3.88;88.19
18749;BME280;9503;53.560;10.246;2023-01-28T14:28:37;102172.81;;;3.60;89.92
18749;BME280;9503;53.560;10.246;2023-01-28T14:31:09;102167.00;;;3.87;89.60
18749;BME280;9503;53.560;10.246;2023-01-28T14:33:39;102166.56;;;3.92;89.51
18749;BME280;9503;53.560;10.246;2023-01-28T14:36:09;102168.22;;;3.82;89.54
18749;BME280;9503;53.560;10.246;2023-01-28T14:38:40;102159.97;;;3.59;90.68
18749;BME280;9503;53.560;10.246;2023-01-28T14:41:09;102159.69;;;3.56;90.24
18749;BME280;9503;53.560;10.246;2023-01-28T14:43:41;102158.47;;;3.52;90.48
18749;BME280;9503;53.560;10.246;2023-01-28T14:46:15;102162.53;;;3.68;90.42
18749;BME280;9503;53.560;10.246;2023-01-28T14:48:51;102165.50;;;3.72;91.35
18749;BME280;9503;53.560;10.246;2023-01-28T14:51:39;102182.69;;;3.83;90.39
18749;BME280;9503;53.560;10.246;2023-01-28T14:57:14;102184.28;;;3.57;90.84
18749;BME280;9503;53.560;10.246;2023-01-28T14:59:47;102181.91;;;3.67;91.20
18749;BME280;9503;53.560;10.246;2023-01-28T15:02:17;102192.97;;;3.76;91.18
18749;BME280;9503;53.560;10.246;2023-01-28T15:04:46;102199.84;;;3.69;91.49
18749;BME280;9503;53.560;10.246;2023-01-28T15:07:19;102201.13;;;3.56;92.08
18749;BME280;9503;53.560;10.246;2023-01-28T15:09:47;102205.94;;;3.62;91.66
18749;BME280;9503;53.560;10.246;2023-01-28T15:12:15;102206.50;;;3.51;92.12
18749;BME280;9503;53.560;10.246;2023-01-28T15:14:43;102213.03;;;3.40;92.63
18749;BME280;9503;53.560;10.246;2023-01-28T15:17:21;102216.47;;;3.49;93.16
18749;BME280;9503;53.560;10.246;2023-01-28T15:19:51;102206.81;;;3.54;92.82
18749;BME280;9503;53.560;10.246;2023-01-28T15:22:22;102208.53;;;3.38;92.57
18749;BME280;9503;53.560;10.246;2023-01-28T15:24:50;102198.19;;;3.19;93.23
18749;BME280;9503;53.560;10.246;2023-01-28T15:27:23;102198.69;;;3.23;94.34
18749;BME280;9503;53.560;10.246;2023-01-28T15:29:53;102193.16;;;3.27;94.22
18749;BME280;9503;53.560;10.246;2023-01-28T15:32:23;102177.03;;;3.18;93.79
18749;BME280;9503;53.560;10.246;2023-01-28T15:34:52;102168.97;;;3.14;94.80
18749;BME280;9503;53.560;10.246;2023-01-28T15:37:19;102167.16;;;3.13;94.94
18749;BME280;9503;53.560;10.246;2023-01-28T15:39:47;102169.84;;;3.14;95.15
18749;BME280;9503;53.560;10.246;2023-01-28T15:42:18;102169.94;;;3.31;94.95
18749;BME280;9503;53.560;10.246;2023-01-28T15:44:46;102167.78;;;3.10;95.37
18749;BME280;9503;53.560;10.246;2023-01-28T15:47:16;102178.34;;;3.15;95.74
18749;BME280;9503;53.560;10.246;2023-01-28T15:49:45;102178.91;;;3.03;96.05
18749;BME280;9503;53.560;10.246;2023-01-28T15:52:14;102188.28;;;2.96;96.51
18749;BME280;9503;53.560;10.246;2023-01-28T15:54:43;102185.47;;;3.01;96.12
18749;BME280;9503;53.560;10.246;2023-01-28T15:57:17;102174.94;;;2.81;97.16
18749;BME280;9503;53.560;10.246;2023-01-28T15:59:45;102158.63;;;2.70;97.99
18749;BME280;9503;53.560;10.246;2023-01-28T16:02:20;102137.97;;;2.74;97.51
18749;BME280;9503;53.560;10.246;2023-01-28T16:04:57;102149.69;;;2.65;98.12
18749;BME280;9503;53.560;10.246;2023-01-28T16:07:28;102162.06;;;2.71;98.89
18749;BME280;9503;53.560;10.246;2023-01-28T16:09:57;102162.19;;;2.64;98.75
18749;BME280;9503;53.560;10.246;2023-01-28T16:12:25;102161.25;;;2.55;99.60
18749;BME280;9503;53.560;10.246;2023-01-28T16:14:54;102161.63;;;2.66;99.11
18749;BME280;9503;53.560;10.246;2023-01-28T16:17:24;102165.44;;;2.63;99.29
18749;BME280;9503;53.560;10.246;2023-01-28T16:19:56;102158.56;;;2.53;100.00
18749;BME280;9503;53.560;10.246;2023-01-28T16:22:32;102154.25;;;2.52;100.00
18749;BME280;9503;53.560;10.246;2023-01-28T16:24:59;102164.22;;;2.51;100.00
18749;BME280;9503;53.560;10.246;2023-01-28T16:27:28;102161.97;;;2.54;100.00
18749;BME280;9503;53.560;10.246;2023-01-28T16:29:55;102166.56;;;2.73;100.00
18749;BME280;9503;53.560;10.246;2023-01-28T16:32:27;102172.19;;;2.71;100.00
18749;BME280;9503;53.560;10.246;2023-01-28T16:34:54;102172.50;;;2.65;100.00
18749;BME280;9503;53.560;10.246;2023-01-28T16:37:21;102166.19;;;2.62;99.71
18749;BME280;9503;53.560;10.246;2023-01-28T16:39:49;102170.56;;;2.71;100.00
18749;BME280;9503;53.560;10.246;2023-01-28T16:42:16;102163.91;;;2.81;100.00
18749;BME280;9503;53.560;10.246;2023-01-28T16:44:43;102173.53;;;2.67;100.00
18749;BME280;9503;53.560;10.246;2023-01-28T16:47:10;102164.78;;;2.72;100.00
18749;BME280;9503;53.560;10.246;2023-01-28T16:49:37;102160.59;;;2.73;100.00
18749;BME280;9503;53.560;10.246;2023-01-28T16:52:05;102152.94;;;2.64;100.00
18749;BME280;9503;53.560;10.246;2023-01-28T16:54:32;102157.47;;;2.75;100.00
18749;BME280;9503;53.560;10.246;2023-01-28T16:57:00;102142.44;;;2.77;100.00
18749;BME280;9503;53.560;10.246;2023-01-28T16:59:27;102155.66;;;2.66;100.00
18749;BME280;9503;53.560;10.246;2023-01-28T17:01:54;102168.25;;;2.82;100.00
18749;BME280;9503;53.560;10.246;2023-01-28T17:04:21;102175.09;;;2.83;100.00
18749;BME280;9503;53.560;10.246;2023-01-28T17:06:48;102173.41;;;2.74;100.00
18749;BME280;9503;53.560;10.246;2023-01-28T17:09:14;102169.84;;;2.72;100.00
18749;BME280;9503;53.560;10.246;2023-01-28T17:11:41;102168.75;;;2.70;100.00
18749;BME280;9503;53.560;10.246;2023-01-28T17:14:10;102164.41;;;2.61;100.00
18749;BME280;9503;53.560;10.246;2023-01-28T17:16:37;102172.75;;;2.60;100.00
18749;BME280;9503;53.560;10.246;2023-01-28T17:19:04;102176.69;;;2.73;100.00
18749;BME280;9503;53.560;10.246;2023-01-28T17:21:30;102177.00;;;2.76;100.00
18749;BME280;9503;53.560;10.246;2023-01-28T17:23:58;102177.38;;;2.88;100.00
18749;BME280;9503;53.560;10.246;2023-01-28T17:26:25;102183.72;;;2.85;100.00
18749;BME280;9503;53.560;10.246;2023-01-28T17:28:53;102174.06;;;2.81;100.00
18749;BME280;9503;53.560;10.246;2023-01-28T17:31:22;102171.28;;;2.70;100.00
18749;BME280;9503;53.560;10.246;2023-01-28T17:33:53;102170.97;;;2.59;100.00
18749;BME280;9503;53.560;10.246;2023-01-28T17:36:20;102167.03;;;2.54;100.00
18749;BME280;9503;53.560;10.246;2023-01-28T17:38:47;102169.97;;;2.65;100.00
18749;BME280;9503;53.560;10.246;2023-01-28T17:41:14;102176.25;;;2.77;100.00
18749;BME280;9503;53.560;10.246;2023-01-28T17:43:42;102174.28;;;2.66;100.00
18749;BME280;9503;53.560;10.246;2023-01-28T17:46:10;102175.53;;;2.54;100.00
18749;BME280;9503;53.560;10.246;2023-01-28T17:48:39;102168.66;;;2.77;100.00
18749;BME280;9503;53.560;10.246;2023-01-28T17:51:07;102172.16;;;2.62;100.00
18749;BME280;9503;53.560;10.246;2023-01-28T17:53:34;102159.50;;;2.62;100.00
18749;BME280;9503;53.560;10.246;2023-01-28T17:56:01;102164.25;;;2.59;100.00
18749;BME280;9503;53.560;10.246;2023-01-28T17:58:27;102164.03;;;2.49;100.00
